Time,TemperatureF,DewpointF,PressureIn,WindDirection,WindDirectionDegrees,WindSpeedMPH,WindSpeedGustMPH,Humidity,HourlyPrecipIn,Conditions,Clouds,dailyrainin,SoftwareType,DateUTC
2013-09-07 00:05:00,54.1,48.0,29.96,WSW,242,0.0,-999.0,79,-99.99,,,0.00,weatherlink.com 1.10,2013-09-07 04:05:00,
2013-09-07 00:20:00,53.7,48.0,29.96,WSW,256,0.0,-999.0,81,-99.99,,,0.00,weatherlink.com 1.10,2013-09-07 04:20:00,
2013-09-07 00:35:00,53.9,48.0,29.96,WSW,244,0.0,-999.0,80,-99.99,,,0.00,weatherlink.com 1.10,2013-09-07 04:35:00,
2013-09-07 00:50:00,54.4,48.0,29.95,WSW,244,0.0,-999.0,78,-99.99,,,0.00,weatherlink.com 1.10,2013-09-07 04:50:00,
2013-09-07 01:05:00,54.0,48.0,29.95,SW,214,0.0,-999.0,79,-99.99,,,0.00,weatherlink.com 1.10,2013-09-07 05:05:00,
2013-09-07 01:20:00,53.5,48.0,29.95,WSW,244,1.0,-999.0,80,-99.99,,,0.00,weatherlink.com 1.10,2013-09-07 05:20:00,
2013-09-07 01:35:00,53.6,48.0,29.95,SSE,161,0.0,-999.0,80,-99.99,,,0.00,weatherlink.com 1.10,2013-09-07 05:35:00,
2013-09-07 01:50:00,53.3,48.0,29.94,WSW,246,1.0,-999.0,81,-99.99,,,0.00,weatherlink.com 1.10,2013-09-07 05:50:00,
2013-09-07 02:05:00,53.5,48.0,29.94,SSW,207,0.0,-999.0,80,-99.99,,,0.00,weatherlink.com 1.10,2013-09-07 06:05:00,
2013-09-07 02:20:00,53.6,47.0,29.93,WSW,250,0.0,-999.0,79,-99.99,,,0.00,weatherlink.com 1.10,2013-09-07 06:20:00,
2013-09-07 02:35:00,53.5,47.0,29.93,SW,229,0.0,-999.0,79,-99.99,,,0.00,weatherlink.com 1.10,2013-09-07 06:35:00,
2013-09-07 02:50:00,52.6,47.0,29.93,SW,229,0.0,-999.0,82,-99.99,,,0.00,weatherlink.com 1.10,2013-09-07 06:50:00,
2013-09-07 03:05:00,52.1,47.0,29.93,SW,229,0.0,-999.0,83,-99.99,,,0.00,weatherlink.com 1.10,2013-09-07 07:05:00,
2013-09-07 03:20:00,51.4,47.0,29.93,SW,228,0.0,-999.0,84,-99.99,,,0.00,weatherlink.com 1.10,2013-09-07 07:20:00,
2013-09-07 03:35:00,50.8,47.0,29.93,SW,234,0.0,-999.0,86,-99.99,,,0.00,weatherlink.com 1.10,2013-09-07 07:35:00,
2013-09-07 03:50:00,50.6,47.0,29.93,SW,234,0.0,-999.0,86,-99.99,,,0.00,weatherlink.com 1.10,2013-09-07 07:50:00,
2013-09-07 04:05:00,51.1,47.0,29.93,SW,234,0.0,-999.0,85,-99.99,,,0.00,weatherlink.com 1.10,2013-09-07 08:05:00,
2013-09-07 04:20:00,50.8,47.0,29.93,WSW,249,0.0,-999.0,86,-99.99,,,0.00,weatherlink.com 1.10,2013-09-07 08:20:00,
2013-09-07 04:35:00,50.5,47.0,29.93,SW,233,0.0,-999.0,87,-99.99,,,0.00,weatherlink.com 1.10,2013-09-07 08:35:00,
2013-09-07 04:50:00,50.4,47.0,29.92,SW,233,0.0,-999.0,87,-99.99,,,0.00,weatherlink.com 1.10,2013-09-07 08:50:00,
2013-09-07 05:05:00,50.4,47.0,29.92,SW,224,0.0,-999.0,87,-99.99,,,0.00,weatherlink.com 1.10,2013-09-07 09:05:00,
2013-09-07 05:20:00,49.8,46.0,29.92,SW,217,1.0,-999.0,88,-99.99,,,0.00,weatherlink.com 1.10,2013-09-07 09:20:00,
2013-09-07 05:35:00,50.4,47.0,29.92,WSW,248,0.0,-999.0,87,-99.99,,,0.00,weatherlink.com 1.10,2013-09-07 09:35:00,
2013-09-07 05:50:00,49.9,47.0,29.92,WSW,248,1.0,-999.0,89,-99.99,,,0.00,weatherlink.com 1.10,2013-09-07 09:50:00,
2013-09-07 06:05:00,49.7,46.0,29.92,SW,230,0.0,-999.0,88,-99.99,,,0.00,weatherlink.com 1.10,2013-09-07 10:05:00,
2013-09-07 06:20:00,49.4,46.0,29.93,SW,230,0.0,-999.0,89,-99.99,,,0.00,weatherlink.com 1.10,2013-09-07 10:20:00,
2013-09-07 06:35:00,49.9,47.0,29.93,SW,230,0.0,-999.0,89,-99.99,,,0.00,weatherlink.com 1.10,2013-09-07 10:35:00,
2013-09-07 06:50:00,50.0,47.0,29.93,SW,230,0.0,-999.0,89,-99.99,,,0.00,weatherlink.com 1.10,2013-09-07 10:50:00,
2013-09-07 07:05:00,50.8,47.0,29.93,WSW,240,0.0,-999.0,88,-99.99,,,0.00,weatherlink.com 1.10,2013-09-07 11:05:00,
2013-09-07 07:20:00,52.0,48.0,29.93,SW,217,0.0,-999.0,87,-99.99,,,0.00,weatherlink.com 1.10,2013-09-07 11:20:00,
2013-09-07 07:35:00,52.8,48.0,29.93,SW,217,0.0,-999.0,85,-99.99,,,0.00,weatherlink.com 1.10,2013-09-07 11:35:00,
2013-09-07 07:50:00,54.1,49.0,29.92,North,360,0.0,-999.0,83,-99.99,,,0.00,weatherlink.com 1.10,2013-09-07 11:50:00,
2013-09-07 08:05:00,55.9,50.0,29.92,SW,232,0.0,-999.0,81,-99.99,,,0.00,weatherlink.com 1.10,2013-09-07 12:05:00,
2013-09-07 08:20:00,57.7,51.0,29.91,SW,215,0.0,-999.0,77,-99.99,,,0.00,weatherlink.com 1.10,2013-09-07 12:20:00,
2013-09-07 08:35:00,59.2,51.0,29.91,WSW,249,0.0,-999.0,75,-99.99,,,0.00,weatherlink.com 1.10,2013-09-07 12:35:00,
2013-09-07 08:50:00,60.8,52.0,29.91,SW,233,0.0,-999.0,73,-99.99,,,0.00,weatherlink.com 1.10,2013-09-07 12:50:00,
2013-09-07 09:05:00,62.0,52.0,29.89,SW,227,0.0,-999.0,70,-99.99,,,0.00,weatherlink.com 1.10,2013-09-07 13:05:00,
2013-09-07 09:20:00,63.1,52.0,29.89,SW,217,0.0,-999.0,67,-99.99,,,0.00,weatherlink.com 1.10,2013-09-07 13:20:00,
2013-09-07 09:35:00,64.8,54.0,29.89,NW,306,0.0,-999.0,67,-99.99,,,0.00,weatherlink.com 1.10,2013-09-07 13:35:00,
2013-09-07 09:50:00,66.4,52.0,29.89,WNW,294,0.0,-999.0,61,-99.99,,,0.00,weatherlink.com 1.10,2013-09-07 13:50:00,
2013-09-07 10:05:00,67.6,54.0,29.90,WSW,252,0.0,-999.0,63,-99.99,,,0.00,weatherlink.com 1.10,2013-09-07 14:05:00,
2013-09-07 10:20:00,68.2,55.0,29.90,SSW,206,0.0,-999.0,63,-99.99,,,0.00,weatherlink.com 1.10,2013-09-07 14:20:00,
2013-09-07 10:35:00,69.0,56.0,29.89,NE,49,0.0,-999.0,63,-99.99,,,0.00,weatherlink.com 1.10,2013-09-07 14:35:00,
2013-09-07 10:50:00,69.7,53.0,29.88,SW,228,0.0,-999.0,56,-99.99,,,0.00,weatherlink.com 1.10,2013-09-07 14:50:00,
2013-09-07 11:05:00,70.1,54.0,29.88,ENE,59,0.0,-999.0,58,-99.99,,,0.00,weatherlink.com 1.10,2013-09-07 15:05:00,
2013-09-07 11:20:00,71.1,55.0,29.87,SW,231,0.0,-999.0,58,-99.99,,,0.00,weatherlink.com 1.10,2013-09-07 15:20:00,
2013-09-07 11:35:00,71.5,56.0,29.86,NNW,339,0.0,-999.0,58,-99.99,,,0.00,weatherlink.com 1.10,2013-09-07 15:35:00,
2013-09-07 11:50:00,72.4,55.0,29.86,WNW,287,0.0,-999.0,55,-99.99,,,0.00,weatherlink.com 1.10,2013-09-07 15:50:00,
2013-09-07 12:05:00,73.2,56.0,29.86,SW,225,0.0,-999.0,56,-99.99,,,0.00,weatherlink.com 1.10,2013-09-07 16:05:00,
2013-09-07 12:20:00,73.5,55.0,29.85,WSW,256,0.0,-999.0,53,-99.99,,,0.00,weatherlink.com 1.10,2013-09-07 16:20:00,
2013-09-07 12:35:00,74.2,57.0,29.84,NNW,328,0.0,-999.0,56,-99.99,,,0.00,weatherlink.com 1.10,2013-09-07 16:35:00,
2013-09-07 12:50:00,74.9,58.0,29.84,West,261,0.0,-999.0,55,-99.99,,,0.00,weatherlink.com 1.10,2013-09-07 16:50:00,
2013-09-07 13:05:00,75.3,54.0,29.83,WSW,250,0.0,-999.0,48,-99.99,,,0.00,weatherlink.com 1.10,2013-09-07 17:05:00,
2013-09-07 13:20:00,76.0,56.0,29.83,NNW,334,0.0,-999.0,50,-99.99,,,0.00,weatherlink.com 1.10,2013-09-07 17:20:00,
2013-09-07 13:35:00,77.3,55.0,29.82,SW,215,0.0,-999.0,46,-99.99,,,0.00,weatherlink.com 1.10,2013-09-07 17:35:00,
2013-09-07 13:50:00,77.2,52.0,29.82,West,260,0.0,-999.0,42,-99.99,,,0.00,weatherlink.com 1.10,2013-09-07 17:50:00,
2013-09-07 14:05:00,78.0,58.0,29.81,SW,220,0.0,-999.0,51,-99.99,,,0.00,weatherlink.com 1.10,2013-09-07 18:05:00,
2013-09-07 14:20:00,78.0,58.0,29.80,WSW,238,0.0,-999.0,50,-99.99,,,0.00,weatherlink.com 1.10,2013-09-07 18:20:00,
2013-09-07 14:35:00,78.5,55.0,29.79,WSW,240,0.0,-999.0,45,-99.99,,,0.00,weatherlink.com 1.10,2013-09-07 18:35:00,
2013-09-07 14:50:00,77.9,57.0,29.79,West,261,0.0,-999.0,49,-99.99,,,0.00,weatherlink.com 1.10,2013-09-07 18:50:00,
2013-09-07 15:05:00,77.9,54.0,29.78,WSW,255,0.0,-999.0,44,-99.99,,,0.00,weatherlink.com 1.10,2013-09-07 19:05:00,
2013-09-07 15:20:00,76.4,59.0,29.78,SW,229,0.0,-999.0,56,-99.99,,,0.00,weatherlink.com 1.10,2013-09-07 19:20:00,
2013-09-07 15:35:00,76.6,61.0,29.78,SW,233,0.0,-999.0,59,-99.99,,,0.00,weatherlink.com 1.10,2013-09-07 19:35:00,
2013-09-07 15:50:00,77.2,58.0,29.77,South,183,0.0,-999.0,51,-99.99,,,0.00,weatherlink.com 1.10,2013-09-07 19:50:00,
2013-09-07 16:05:00,76.0,59.0,29.77,West,265,0.0,-999.0,55,-99.99,,,0.00,weatherlink.com 1.10,2013-09-07 20:05:00,
2013-09-07 16:20:00,74.7,62.0,29.77,SW,232,0.0,-999.0,65,-99.99,,,0.00,weatherlink.com 1.10,2013-09-07 20:20:00,
2013-09-07 16:35:00,73.3,62.0,29.76,SW,232,0.0,-999.0,67,-99.99,,,0.00,weatherlink.com 1.10,2013-09-07 20:35:00,
2013-09-07 16:50:00,73.4,63.0,29.76,SW,232,0.0,-999.0,70,-99.99,,,0.00,weatherlink.com 1.10,2013-09-07 20:50:00,
2013-09-07 17:05:00,73.7,63.0,29.76,SW,232,0.0,-999.0,69,-99.99,,,0.00,weatherlink.com 1.10,2013-09-07 21:05:00,
2013-09-07 17:20:00,73.3,63.0,29.76,SW,226,0.0,-999.0,70,-99.99,,,0.00,weatherlink.com 1.10,2013-09-07 21:20:00,
2013-09-07 17:35:00,72.8,62.0,29.76,SSW,207,0.0,-999.0,68,-99.99,,,0.00,weatherlink.com 1.10,2013-09-07 21:35:00,
2013-09-07 17:50:00,72.2,62.0,29.76,SW,236,0.0,-999.0,71,-99.99,,,0.00,weatherlink.com 1.10,2013-09-07 21:50:00,
2013-09-07 18:05:00,71.8,63.0,29.76,SW,236,0.0,-999.0,73,-99.99,,,0.00,weatherlink.com 1.10,2013-09-07 22:05:00,
2013-09-07 18:20:00,70.9,62.0,29.76,SSW,198,0.0,-999.0,73,-99.99,,,0.00,weatherlink.com 1.10,2013-09-07 22:20:00,
2013-09-07 18:35:00,70.3,61.0,29.76,SSW,208,0.0,-999.0,72,-99.99,,,0.00,weatherlink.com 1.10,2013-09-07 22:35:00,
2013-09-07 18:50:00,70.1,59.0,29.76,SW,228,0.0,-999.0,69,-99.99,,,0.00,weatherlink.com 1.10,2013-09-07 22:50:00,
2013-09-07 19:05:00,69.8,58.0,29.76,SSW,213,0.0,-999.0,67,-99.99,,,0.00,weatherlink.com 1.10,2013-09-07 23:05:00,
2013-09-07 19:20:00,69.5,58.0,29.76,SW,219,0.0,-999.0,67,-99.99,,,0.00,weatherlink.com 1.10,2013-09-07 23:20:00,
2013-09-07 19:35:00,68.9,59.0,29.76,SW,215,0.0,-999.0,71,-99.99,,,0.00,weatherlink.com 1.10,2013-09-07 23:35:00,
2013-09-07 19:50:00,68.2,59.0,29.76,SW,230,0.0,-999.0,73,-99.99,,,0.00,weatherlink.com 1.10,2013-09-07 23:50:00,
2013-09-07 20:05:00,67.7,59.0,29.76,SW,218,0.0,-999.0,74,-99.99,,,0.00,weatherlink.com 1.10,2013-09-08 00:05:00,
2013-09-07 20:20:00,68.0,59.0,29.76,SW,220,0.0,-999.0,72,-99.99,,,0.00,weatherlink.com 1.10,2013-09-08 00:20:00,
2013-09-07 20:35:00,67.9,58.0,29.76,South,170,0.0,-999.0,70,-99.99,,,0.00,weatherlink.com 1.10,2013-09-08 00:35:00,
2013-09-07 20:50:00,67.8,58.0,29.76,South,186,0.0,-999.0,70,-99.99,,,0.00,weatherlink.com 1.10,2013-09-08 00:50:00,
2013-09-07 21:05:00,67.4,58.0,29.76,South,186,0.0,-999.0,71,-99.99,,,0.00,weatherlink.com 1.10,2013-09-08 01:05:00,
2013-09-07 21:20:00,66.8,58.0,29.77,South,186,0.0,-999.0,73,-99.99,,,0.00,weatherlink.com 1.10,2013-09-08 01:20:00,
2013-09-07 21:35:00,66.1,58.0,29.76,SSW,211,0.0,-999.0,76,-99.99,,,0.00,weatherlink.com 1.10,2013-09-08 01:35:00,
2013-09-07 21:50:00,65.5,59.0,29.76,SSW,211,0.0,-999.0,79,-99.99,,,0.00,weatherlink.com 1.10,2013-09-08 01:50:00,
2013-09-07 22:05:00,64.9,58.0,29.76,SSW,211,0.0,-999.0,77,-99.99,,,0.00,weatherlink.com 1.10,2013-09-08 02:05:00,
2013-09-07 22:20:00,64.4,57.0,29.76,SSW,211,0.0,-999.0,77,-99.99,,,0.00,weatherlink.com 1.10,2013-09-08 02:20:00,
2013-09-07 22:35:00,63.9,58.0,29.75,SSW,211,0.0,-999.0,80,-99.99,,,0.00,weatherlink.com 1.10,2013-09-08 02:35:00,
2013-09-07 22:50:00,63.6,58.0,29.75,SSW,211,0.0,-999.0,81,-99.99,,,0.00,weatherlink.com 1.10,2013-09-08 02:50:00,
2013-09-07 23:05:00,62.9,58.0,29.74,SW,214,0.0,-999.0,83,-99.99,,,0.00,weatherlink.com 1.10,2013-09-08 03:05:00,
2013-09-07 23:20:00,62.6,57.0,29.73,SW,231,0.0,-999.0,81,-99.99,,,0.00,weatherlink.com 1.10,2013-09-08 03:20:00,
2013-09-07 23:35:00,62.8,57.0,29.72,South,186,0.0,-999.0,81,-99.99,,,0.00,weatherlink.com 1.10,2013-09-08 03:35:00,
2013-09-07 23:50:00,62.4,57.0,29.72,South,186,0.0,-999.0,82,-99.99,,,0.00,weatherlink.com 1.10,2013-09-08 03:50:00,